sensor_id;sensor_type;location;lat;lon;timestamp;temperature;humidity
78550;DHT22;68091;52.130;5.570;2023-05-29T00:01:48;10.90;99.90
78550;DHT22;68091;52.130;5.570;2023-05-29T00:04:14;11.00;99.90
78550;DHT22;68091;52.130;5.570;2023-05-29T00:06:40;11.00;99.90
78550;DHT22;68091;52.130;5.570;2023-05-29T00:09:06;10.90;99.90
78550;DHT22;68091;52.130;5.570;2023-05-29T00:11:34;10.90;99.90
78550;DHT22;68091;52.130;5.570;2023-05-29T00:14:03;10.90;99.90
78550;DHT22;68091;52.130;5.570;2023-05-29T00:16:28;10.80;99.90
78550;DHT22;68091;52.130;5.570;2023-05-29T00:18:55;10.80;99.90
78550;DHT22;68091;52.130;5.570;2023-05-29T00:21:21;10.80;99.90
78550;DHT22;68091;52.130;5.570;2023-05-29T00:23:50;10.70;99.90
78550;DHT22;68091;52.130;5.570;2023-05-29T00:26:16;10.70;99.90
78550;DHT22;68091;52.130;5.570;2023-05-29T00:28:42;10.70;99.90
78550;DHT22;68091;52.130;5.570;2023-05-29T00:31:08;10.70;99.90
78550;DHT22;68091;52.130;5.570;2023-05-29T00:33:34;10.60;99.90
78550;DHT22;68091;52.130;5.570;2023-05-29T00:35:59;10.60;99.90
78550;DHT22;68091;52.130;5.570;2023-05-29T00:38:25;10.70;99.90
78550;DHT22;68091;52.130;5.570;2023-05-29T00:40:51;10.60;99.90
78550;DHT22;68091;52.130;5.570;2023-05-29T00:43:17;10.60;99.90
78550;DHT22;68091;52.130;5.570;2023-05-29T00:45:42;10.50;99.90
78550;DHT22;68091;52.130;5.570;2023-05-29T00:48:08;10.50;99.90
78550;DHT22;68091;52.130;5.570;2023-05-29T00:50:34;10.50;99.90
78550;DHT22;68091;52.130;5.570;2023-05-29T00:53:01;10.50;99.90
78550;DHT22;68091;52.130;5.570;2023-05-29T00:55:29;10.40;99.90
78550;DHT22;68091;52.130;5.570;2023-05-29T00:57:57;10.40;99.90
78550;DHT22;68091;52.130;5.570;2023-05-29T01:00:27;10.40;99.90
78550;DHT22;68091;52.130;5.570;2023-05-29T01:02:54;10.30;99.90
78550;DHT22;68091;52.130;5.570;2023-05-29T01:05:21;10.40;99.90
78550;DHT22;68091;52.130;5.570;2023-05-29T01:07:48;10.30;99.90
78550;DHT22;68091;52.130;5.570;2023-05-29T01:10:14;10.30;99.90
78550;DHT22;68091;52.130;5.570;2023-05-29T01:13:06;10.30;99.90
78550;DHT22;68091;52.130;5.570;2023-05-29T01:18:38;10.20;99.90
78550;DHT22;68091;52.130;5.570;2023-05-29T01:26:50;10.10;99.90
78550;DHT22;68091;52.130;5.570;2023-05-29T01:29:23;10.10;99.90
78550;DHT22;68091;52.130;5.570;2023-05-29T01:31:54;10.10;99.90
78550;DHT22;68091;52.130;5.570;2023-05-29T01:34:24;10.00;99.90
78550;DHT22;68091;52.130;5.570;2023-05-29T01:36:50;10.00;99.90
78550;DHT22;68091;52.130;5.570;2023-05-29T01:39:16;10.00;99.90
78550;DHT22;68091;52.130;5.570;2023-05-29T01:41:45;10.00;99.90
78550;DHT22;68091;52.130;5.570;2023-05-29T01:44:13;10.00;99.90
78550;DHT22;68091;52.130;5.570;2023-05-29T01:46:42;9.90;99.90
78550;DHT22;68091;52.130;5.570;2023-05-29T01:49:09;9.90;99.90
78550;DHT22;68091;52.130;5.570;2023-05-29T01:51:37;9.80;99.90
78550;DHT22;68091;52.130;5.570;2023-05-29T01:54:04;9.80;99.90
78550;DHT22;68091;52.130;5.570;2023-05-29T01:56:31;9.90;99.90
78550;DHT22;68091;52.130;5.570;2023-05-29T01:58:57;9.80;99.90
78550;DHT22;68091;52.130;5.570;2023-05-29T02:01:24;9.80;99.90
78550;DHT22;68091;52.130;5.570;2023-05-29T02:03:50;9.80;99.90
78550;DHT22;68091;52.130;5.570;2023-05-29T02:06:19;9.80;99.90
78550;DHT22;68091;52.130;5.570;2023-05-29T02:08:45;9.80;99.90
78550;DHT22;68091;52.130;5.570;2023-05-29T02:11:17;9.80;99.90
78550;DHT22;68091;52.130;5.570;2023-05-29T02:13:43;9.70;99.90
78550;DHT22;68091;52.130;5.570;2023-05-29T02:16:08;9.70;99.90
78550;DHT22;68091;52.130;5.570;2023-05-29T02:18:35;9.70;99.90
78550;DHT22;68091;52.130;5.570;2023-05-29T02:21:00;9.60;99.90
78550;DHT22;68091;52.130;5.570;2023-05-29T02:23:27;9.60;99.90
78550;DHT22;68091;52.130;5.570;2023-05-29T02:25:53;9.60;99.90
78550;DHT22;68091;52.130;5.570;2023-05-29T02:28:19;9.60;99.90
78550;DHT22;68091;52.130;5.570;2023-05-29T02:30:45;9.60;99.90
78550;DHT22;68091;52.130;5.570;2023-05-29T02:33:11;9.60;99.90
78550;DHT22;68091;52.130;5.570;2023-05-29T02:35:40;9.50;99.90
78550;DHT22;68091;52.130;5.570;2023-05-29T02:38:06;9.50;99.90
78550;DHT22;68091;52.130;5.570;2023-05-29T02:40:31;9.50;99.90
78550;DHT22;68091;52.130;5.570;2023-05-29T02:42:57;9.50;99.90
78550;DHT22;68091;52.130;5.570;2023-05-29T02:45:23;9.50;99.90
78550;DHT22;68091;52.130;5.570;2023-05-29T02:47:49;9.50;99.90
78550;DHT22;68091;52.130;5.570;2023-05-29T02:50:18;9.40;99.90
78550;DHT22;68091;52.130;5.570;2023-05-29T02:52:43;9.40;99.90
78550;DHT22;68091;52.130;5.570;2023-05-29T02:55:09;9.40;99.90
78550;DHT22;68091;52.130;5.570;2023-05-29T02:57:35;9.40;99.90
78550;DHT22;68091;52.130;5.570;2023-05-29T03:00:01;9.40;99.90
78550;DHT22;68091;52.130;5.570;2023-05-29T03:02:26;9.40;99.90
78550;DHT22;68091;52.130;5.570;2023-05-29T03:04:52;9.30;99.90
78550;DHT22;68091;52.130;5.570;2023-05-29T03:07:19;9.30;99.90
78550;DHT22;68091;52.130;5.570;2023-05-29T03:09:45;9.30;99.90
78550;DHT22;68091;52.130;5.570;2023-05-29T03:12:11;9.30;99.90
78550;DHT22;68091;52.130;5.570;2023-05-29T03:14:37;9.30;99.90
78550;DHT22;68091;52.130;5.570;2023-05-29T03:17:06;9.30;99.90
78550;DHT22;68091;52.130;5.570;2023-05-29T03:19:35;9.20;99.90
78550;DHT22;68091;52.130;5.570;2023-05-29T03:22:01;9.20;99.90
78550;DHT22;68091;52.130;5.570;2023-05-29T03:24:26;9.20;99.90
78550;DHT22;68091;52.130;5.570;2023-05-29T03:26:53;9.20;99.90
78550;DHT22;68091;52.130;5.570;2023-05-29T03:29:19;9.20;99.90
78550;DHT22;68091;52.130;5.570;2023-05-29T03:31:44;9.20;99.90
78550;DHT22;68091;52.130;5.570;2023-05-29T03:34:10;9.20;99.90
78550;DHT22;68091;52.130;5.570;2023-05-29T03:36:36;9.10;99.90
78550;DHT22;68091;52.130;5.570;2023-05-29T03:39:03;9.20;99.90
78550;DHT22;68091;52.130;5.570;2023-05-29T03:41:32;9.20;99.90
78550;DHT22;68091;52.130;5.570;2023-05-29T03:43:58;9.20;99.90
78550;DHT22;68091;52.130;5.570;2023-05-29T03:46:23;9.10;99.90
78550;DHT22;68091;52.130;5.570;2023-05-29T03:48:49;9.10;99.90
78550;DHT22;68091;52.130;5.570;2023-05-29T03:51:15;9.10;99.90
78550;DHT22;68091;52.130;5.570;2023-05-29T03:53:41;9.10;99.90
78550;DHT22;68091;52.130;5.570;2023-05-29T03:56:07;9.20;99.90
78550;DHT22;68091;52.130;5.570;2023-05-29T03:58:33;9.20;99.90
78550;DHT22;68091;52.130;5.570;2023-05-29T04:00:58;9.20;99.90
78550;DHT22;68091;52.130;5.570;2023-05-29T04:03:24;9.20;99.90
78550;DHT22;68091;52.130;5.570;2023-05-29T04:05:50;9.20;99.90
78550;DHT22;68091;52.130;5.570;2023-05-29T04:08:16;9.20;99.90
78550;DHT22;68091;52.130;5.570;2023-05-29T04:10:42;9.20;99.90
78550;DHT22;68091;52.130;5.570;2023-05-29T04:13:09;9.30;99.90
78550;DHT22;68091;52.130;5.570;2023-05-29T04:15:34;9.10;99.90
78550;DHT22;68091;52.130;5.570;2023-05-29T04:18:00;9.20;99.90
78550;DHT22;68091;52.130;5.570;2023-05-29T04:20:26;9.20;99.90
78550;DHT22;68091;52.130;5.570;2023-05-29T04:22:52;9.20;99.90
78550;DHT22;68091;52.130;5.570;2023-05-29T04:25:18;9.30;99.90
78550;DHT22;68091;52.130;5.570;2023-05-29T04:27:44;9.30;99.90
78550;DHT22;68091;52.130;5.570;2023-05-29T04:30:15;9.30;99.90
78550;DHT22;68091;52.130;5.570;2023-05-29T04:32:41;9.30;99.90
78550;DHT22;68091;52.130;5.570;2023-05-29T04:35:08;9.30;99.90
78550;DHT22;68091;52.130;5.570;2023-05-29T04:37:35;9.40;99.90
78550;DHT22;68091;52.130;5.570;2023-05-29T04:40:08;9.40;99.90
78550;DHT22;68091;52.130;5.570;2023-05-29T04:42:38;9.40;99.90
78550;DHT22;68091;52.130;5.570;2023-05-29T04:45:05;9.50;99.90
78550;DHT22;68091;52.130;5.570;2023-05-29T04:47:31;9.50;99.90
78550;DHT22;68091;52.130;5.570;2023-05-29T04:50:02;9.60;99.90
78550;DHT22;68091;52.130;5.570;2023-05-29T04:52:33;9.60;99.90
78550;DHT22;68091;52.130;5.570;2023-05-29T04:55:02;9.60;99.90
78550;DHT22;68091;52.130;5.570;2023-05-29T04:57:31;9.70;99.90
78550;DHT22;68091;52.130;5.570;2023-05-29T04:59:57;9.70;99.90
78550;DHT22;68091;52.130;5.570;2023-05-29T05:02:25;9.90;99.90
78550;DHT22;68091;52.130;5.570;2023-05-29T05:04:51;10.20;99.90
78550;DHT22;68091;52.130;5.570;2023-05-29T05:07:17;10.70;99.90
78550;DHT22;68091;52.130;5.570;2023-05-29T05:09:43;11.00;99.90
78550;DHT22;68091;52.130;5.570;2023-05-29T05:12:09;11.20;99.90
78550;DHT22;68091;52.130;5.570;2023-05-29T05:14:35;11.40;99.90
78550;DHT22;68091;52.130;5.570;2023-05-29T05:17:03;11.70;99.90
78550;DHT22;68091;52.130;5.570;2023-05-29T05:19:32;12.00;99.90
78550;DHT22;68091;52.130;5.570;2023-05-29T05:21:58;11.80;99.90
78550;DHT22;68091;52.130;5.570;2023-05-29T05:24:23;11.80;99.90
78550;DHT22;68091;52.130;5.570;2023-05-29T05:26:49;11.60;99.90
78550;DHT22;68091;52.130;5.570;2023-05-29T05:29:15;11.50;99.90
78550;DHT22;68091;52.130;5.570;2023-05-29T05:31:41;11.30;99.90
78550;DHT22;68091;52.130;5.570;2023-05-29T05:34:07;11.20;99.90
78550;DHT22;68091;52.130;5.570;2023-05-29T05:36:33;11.20;99.90
78550;DHT22;68091;52.130;5.570;2023-05-29T05:38:58;11.20;99.90
78550;DHT22;68091;52.130;5.570;2023-05-29T05:41:24;11.30;99.90
78550;DHT22;68091;52.130;5.570;2023-05-29T05:43:50;11.40;99.90
78550;DHT22;68091;52.130;5.570;2023-05-29T05:46:16;11.40;99.90
78550;DHT22;68091;52.130;5.570;2023-05-29T05:48:43;11.40;99.90
78550;DHT22;68091;52.130;5.570;2023-05-29T05:51:09;11.50;99.90
78550;DHT22;68091;52.130;5.570;2023-05-29T05:53:39;11.60;99.90
78550;DHT22;68091;52.130;5.570;2023-05-29T05:56:07;11.80;99.90
78550;DHT22;68091;52.130;5.570;2023-05-29T05:58:39;12.00;99.90
78550;DHT22;68091;52.130;5.570;2023-05-29T06:01:05;12.10;99.90
78550;DHT22;68091;52.130;5.570;2023-05-29T06:03:32;12.30;99.90
78550;DHT22;68091;52.130;5.570;2023-05-29T06:05:58;12.30;99.90
78550;DHT22;68091;52.130;5.570;2023-05-29T06:08:24;12.30;99.90
78550;DHT22;68091;52.130;5.570;2023-05-29T06:10:50;12.30;99.90
78550;DHT22;68091;52.130;5.570;2023-05-29T06:13:16;12.40;99.90
78550;DHT22;68091;52.130;5.570;2023-05-29T06:15:43;12.50;99.90
78550;DHT22;68091;52.130;5.570;2023-05-29T06:18:12;12.60;99.90
78550;DHT22;68091;52.130;5.570;2023-05-29T06:20:38;12.50;99.90
78550;DHT22;68091;52.130;5.570;2023-05-29T06:23:04;12.70;99.90
78550;DHT22;68091;52.130;5.570;2023-05-29T06:25:30;12.80;99.90
78550;DHT22;68091;52.130;5.570;2023-05-29T06:28:05;12.70;99.90
78550;DHT22;68091;52.130;5.570;2023-05-29T06:30:31;12.70;99.90
78550;DHT22;68091;52.130;5.570;2023-05-29T06:33:03;12.80;99.90
78550;DHT22;68091;52.130;5.570;2023-05-29T06:35:32;12.90;99.90
78550;DHT22;68091;52.130;5.570;2023-05-29T06:37:58;13.00;99.90
78550;DHT22;68091;52.130;5.570;2023-05-29T06:40:23;13.30;99.90
78550;DHT22;68091;52.130;5.570;2023-05-29T06:42:49;13.40;99.90
78550;DHT22;68091;52.130;5.570;2023-05-29T06:45:18;13.30;99.90
78550;DHT22;68091;52.130;5.570;2023-05-29T06:47:44;13.30;99.90
78550;DHT22;68091;52.130;5.570;2023-05-29T06:50:16;13.10;99.90
78550;DHT22;68091;52.130;5.570;2023-05-29T06:52:42;13.20;99.90
78550;DHT22;68091;52.130;5.570;2023-05-29T06:55:08;13.30;99.90
78550;DHT22;68091;52.130;5.570;2023-05-29T06:57:34;13.50;99.90
78550;DHT22;68091;52.130;5.570;2023-05-29T07:00:00;13.70;99.90
78550;DHT22;68091;52.130;5.570;2023-05-29T07:02:25;13.80;99.90
78550;DHT22;68091;52.130;5.570;2023-05-29T07:04:51;13.90;99.90
78550;DHT22;68091;52.130;5.570;2023-05-29T07:07:17;14.00;99.90
78550;DHT22;68091;52.130;5.570;2023-05-29T07:09:43;14.20;99.90
78550;DHT22;68091;52.130;5.570;2023-05-29T07:12:12;14.20;99.90
78550;DHT22;68091;52.130;5.570;2023-05-29T07:14:38;14.40;99.90
78550;DHT22;68091;52.130;5.570;2023-05-29T07:17:06;14.70;99.90
78550;DHT22;68091;52.130;5.570;2023-05-29T07:19:32;14.70;99.90
78550;DHT22;68091;52.130;5.570;2023-05-29T07:21:59;14.80;99.90
78550;DHT22;68091;52.130;5.570;2023-05-29T07:24:26;15.10;99.90
78550;DHT22;68091;52.130;5.570;2023-05-29T07:26:52;15.10;99.90
78550;DHT22;68091;52.130;5.570;2023-05-29T07:29:18;15.20;99.90
78550;DHT22;68091;52.130;5.570;2023-05-29T07:31:46;15.20;99.90
78550;DHT22;68091;52.130;5.570;2023-05-29T07:34:12;15.00;99.90
78550;DHT22;68091;52.130;5.570;2023-05-29T07:36:56;15.00;99.90
78550;DHT22;68091;52.130;5.570;2023-05-29T07:39:25;15.20;99.90
78550;DHT22;68091;52.130;5.570;2023-05-29T07:41:51;15.20;99.90
78550;DHT22;68091;52.130;5.570;2023-05-29T07:44:21;15.50;99.90
78550;DHT22;68091;52.130;5.570;2023-05-29T07:46:46;15.80;99.90
78550;DHT22;68091;52.130;5.570;2023-05-29T07:49:13;15.90;99.90
78550;DHT22;68091;52.130;5.570;2023-05-29T07:51:39;15.80;99.90
78550;DHT22;68091;52.130;5.570;2023-05-29T07:54:05;15.90;99.90
78550;DHT22;68091;52.130;5.570;2023-05-29T07:56:31;16.10;99.90
78550;DHT22;68091;52.130;5.570;2023-05-29T07:58:59;16.40;99.80
78550;DHT22;68091;52.130;5.570;2023-05-29T08:01:26;16.60;99.10
78550;DHT22;68091;52.130;5.570;2023-05-29T08:03:52;16.30;99.20
78550;DHT22;68091;52.130;5.570;2023-05-29T08:06:18;16.30;99.50
78550;DHT22;68091;52.130;5.570;2023-05-29T08:08:44;16.30;99.50
78550;DHT22;68091;52.130;5.570;2023-05-29T08:11:10;16.40;99.30
78550;DHT22;68091;52.130;5.570;2023-05-29T08:13:36;16.50;99.10
78550;DHT22;68091;52.130;5.570;2023-05-29T08:16:03;16.50;99.00
78550;DHT22;68091;52.130;5.570;2023-05-29T08:18:34;16.50;98.90
78550;DHT22;68091;52.130;5.570;2023-05-29T08:21:02;16.50;99.10
78550;DHT22;68091;52.130;5.570;2023-05-29T08:23:31;16.60;99.00
78550;DHT22;68091;52.130;5.570;2023-05-29T08:25:57;16.50;99.10
78550;DHT22;68091;52.130;5.570;2023-05-29T08:28:23;16.50;99.00
78550;DHT22;68091;52.130;5.570;2023-05-29T08:30:49;16.60;98.50
78550;DHT22;68091;52.130;5.570;2023-05-29T08:33:15;17.00;98.50
78550;DHT22;68091;52.130;5.570;2023-05-29T08:35:41;17.10;98.20
78550;DHT22;68091;52.130;5.570;2023-05-29T08:38:06;17.30;98.10
78550;DHT22;68091;52.130;5.570;2023-05-29T08:40:32;17.30;97.60
78550;DHT22;68091;52.130;5.570;2023-05-29T08:43:21;17.50;97.60
78550;DHT22;68091;52.130;5.570;2023-05-29T08:45:54;17.30;96.70
78550;DHT22;68091;52.130;5.570;2023-05-29T08:48:23;17.10;97.00
78550;DHT22;68091;52.130;5.570;2023-05-29T08:50:53;17.20;97.20
78550;DHT22;68091;52.130;5.570;2023-05-29T08:53:24;17.30;97.10
78550;DHT22;68091;52.130;5.570;2023-05-29T08:55:51;17.10;97.20
78550;DHT22;68091;52.130;5.570;2023-05-29T08:58:19;17.10;97.40
78550;DHT22;68091;52.130;5.570;2023-05-29T09:00:47;17.10;97.20
78550;DHT22;68091;52.130;5.570;2023-05-29T09:03:13;17.10;96.40
78550;DHT22;68091;52.130;5.570;2023-05-29T09:05:40;17.10;97.00
78550;DHT22;68091;52.130;5.570;2023-05-29T09:08:10;17.10;96.10
78550;DHT22;68091;52.130;5.570;2023-05-29T09:10:41;17.10;96.20
78550;DHT22;68091;52.130;5.570;2023-05-29T09:13:07;17.20;95.70
78550;DHT22;68091;52.130;5.570;2023-05-29T09:15:35;17.00;96.30
78550;DHT22;68091;52.130;5.570;2023-05-29T09:18:02;17.20;96.30
78550;DHT22;68091;52.130;5.570;2023-05-29T09:20:29;17.10;96.40
78550;DHT22;68091;52.130;5.570;2023-05-29T09:22:56;17.40;96.40
78550;DHT22;68091;52.130;5.570;2023-05-29T09:25:24;17.50;95.90
78550;DHT22;68091;52.130;5.570;2023-05-29T09:28:12;17.50;96.20
78550;DHT22;68091;52.130;5.570;2023-05-29T09:30:47;17.30;96.10
78550;DHT22;68091;52.130;5.570;2023-05-29T09:33:14;17.40;95.60
78550;DHT22;68091;52.130;5.570;2023-05-29T09:35:43;17.40;95.50
78550;DHT22;68091;52.130;5.570;2023-05-29T09:38:11;17.60;95.70
78550;DHT22;68091;52.130;5.570;2023-05-29T09:40:39;17.90;95.30
78550;DHT22;68091;52.130;5.570;2023-05-29T09:43:11;17.90;95.10
78550;DHT22;68091;52.130;5.570;2023-05-29T09:45:42;18.00;94.50
78550;DHT22;68091;52.130;5.570;2023-05-29T09:48:13;17.90;94.50
78550;DHT22;68091;52.130;5.570;2023-05-29T09:50:39;18.10;94.20
78550;DHT22;68091;52.130;5.570;2023-05-29T09:53:19;18.30;94.00
78550;DHT22;68091;52.130;5.570;2023-05-29T09:55:46;18.10;93.90
78550;DHT22;68091;52.130;5.570;2023-05-29T09:58:14;17.70;94.90
78550;DHT22;68091;52.130;5.570;2023-05-29T10:00:43;17.90;95.60
78550;DHT22;68091;52.130;5.570;2023-05-29T10:03:10;18.20;95.40
78550;DHT22;68091;52.130;5.570;2023-05-29T10:05:40;18.30;95.00
78550;DHT22;68091;52.130;5.570;2023-05-29T10:08:17;18.30;93.80
78550;DHT22;68091;52.130;5.570;2023-05-29T10:11:00;18.30;94.00
78550;DHT22;68091;52.130;5.570;2023-05-29T10:13:39;18.30;94.30
78550;DHT22;68091;52.130;5.570;2023-05-29T10:16:15;18.60;93.30
78550;DHT22;68091;52.130;5.570;2023-05-29T10:18:50;18.50;92.60
78550;DHT22;68091;52.130;5.570;2023-05-29T10:21:21;18.50;93.10
78550;DHT22;68091;52.130;5.570;2023-05-29T10:23:50;18.30;93.40
78550;DHT22;68091;52.130;5.570;2023-05-29T10:26:22;18.10;94.30
78550;DHT22;68091;52.130;5.570;2023-05-29T10:31:42;18.10;93.70
78550;DHT22;68091;52.130;5.570;2023-05-29T10:34:36;18.10;94.10
78550;DHT22;68091;52.130;5.570;2023-05-29T10:37:42;18.40;94.20
78550;DHT22;68091;52.130;5.570;2023-05-29T10:40:11;18.50;93.70
78550;DHT22;68091;52.130;5.570;2023-05-29T10:42:47;18.60;93.90
78550;DHT22;68091;52.130;5.570;2023-05-29T10:50:47;19.10;92.80
78550;DHT22;68091;52.130;5.570;2023-05-29T10:53:33;18.90;92.90
78550;DHT22;68091;52.130;5.570;2023-05-29T10:56:00;18.80;93.30
78550;DHT22;68091;52.130;5.570;2023-05-29T10:58:31;18.70;92.90
78550;DHT22;68091;52.130;5.570;2023-05-29T11:00:57;18.90;92.90
78550;DHT22;68091;52.130;5.570;2023-05-29T11:03:34;19.00;92.60
78550;DHT22;68091;52.130;5.570;2023-05-29T11:06:20;18.80;92.90
78550;DHT22;68091;52.130;5.570;2023-05-29T11:08:54;18.90;92.00
78550;DHT22;68091;52.130;5.570;2023-05-29T11:13:53;19.00;92.90
78550;DHT22;68091;52.130;5.570;2023-05-29T11:18:57;18.90;92.40
78550;DHT22;68091;52.130;5.570;2023-05-29T11:21:33;18.80;92.40
78550;DHT22;68091;52.130;5.570;2023-05-29T11:24:01;18.80;91.70
78550;DHT22;68091;52.130;5.570;2023-05-29T11:26:34;19.00;91.70
78550;DHT22;68091;52.130;5.570;2023-05-29T11:29:05;19.10;91.70
78550;DHT22;68091;52.130;5.570;2023-05-29T11:31:37;19.30;91.80
78550;DHT22;68091;52.130;5.570;2023-05-29T11:34:10;19.40;91.70
78550;DHT22;68091;52.130;5.570;2023-05-29T11:36:39;19.40;91.00
78550;DHT22;68091;52.130;5.570;2023-05-29T11:39:05;19.50;91.20
78550;DHT22;68091;52.130;5.570;2023-05-29T11:41:34;19.60;90.50
78550;DHT22;68091;52.130;5.570;2023-05-29T11:44:01;19.50;90.40
78550;DHT22;68091;52.130;5.570;2023-05-29T11:46:28;19.70;90.30
78550;DHT22;68091;52.130;5.570;2023-05-29T11:48:56;19.70;90.10
78550;DHT22;68091;52.130;5.570;2023-05-29T11:51:28;19.80;89.90
78550;DHT22;68091;52.130;5.570;2023-05-29T11:53:54;20.00;89.50
78550;DHT22;68091;52.130;5.570;2023-05-29T11:56:27;20.10;87.90
78550;DHT22;68091;52.130;5.570;2023-05-29T11:58:58;20.30;87.80
78550;DHT22;68091;52.130;5.570;2023-05-29T12:01:25;20.10;87.60
78550;DHT22;68091;52.130;5.570;2023-05-29T12:03:52;20.20;87.20
78550;DHT22;68091;52.130;5.570;2023-05-29T12:06:35;20.30;84.60
78550;DHT22;68091;52.130;5.570;2023-05-29T12:09:03;20.10;86.60
78550;DHT22;68091;52.130;5.570;2023-05-29T12:11:30;19.90;85.60
78550;DHT22;68091;52.130;5.570;2023-05-29T12:14:05;19.90;87.40
78550;DHT22;68091;52.130;5.570;2023-05-29T12:16:39;19.90;90.00
78550;DHT22;68091;52.130;5.570;2023-05-29T12:19:05;20.20;90.00
78550;DHT22;68091;52.130;5.570;2023-05-29T12:21:31;20.30;89.90
78550;DHT22;68091;52.130;5.570;2023-05-29T12:23:58;20.40;89.40
78550;DHT22;68091;52.130;5.570;2023-05-29T12:26:24;20.20;89.10
78550;DHT22;68091;52.130;5.570;2023-05-29T12:28:51;20.00;89.70
78550;DHT22;68091;52.130;5.570;2023-05-29T12:31:33;19.90;89.70
78550;DHT22;68091;52.130;5.570;2023-05-29T12:34:11;19.90;89.00
78550;DHT22;68091;52.130;5.570;2023-05-29T12:36:44;19.80;88.60
78550;DHT22;68091;52.130;5.570;2023-05-29T12:39:13;19.70;89.30
78550;DHT22;68091;52.130;5.570;2023-05-29T12:41:45;19.60;89.50
78550;DHT22;68091;52.130;5.570;2023-05-29T12:44:18;19.50;90.30
78550;DHT22;68091;52.130;5.570;2023-05-29T12:46:44;19.60;89.10
78550;DHT22;68091;52.130;5.570;2023-05-29T12:49:19;19.60;88.90
78550;DHT22;68091;52.130;5.570;2023-05-29T12:51:46;19.60;89.50
78550;DHT22;68091;52.130;5.570;2023-05-29T12:54:16;19.90;88.70
78550;DHT22;68091;52.130;5.570;2023-05-29T12:56:43;20.20;87.30
78550;DHT22;68091;52.130;5.570;2023-05-29T12:59:13;20.30;86.50
78550;DHT22;68091;52.130;5.570;2023-05-29T13:01:39;20.10;86.80
78550;DHT22;68091;52.130;5.570;2023-05-29T13:04:06;20.10;87.90
78550;DHT22;68091;52.130;5.570;2023-05-29T13:06:35;20.20;88.40
78550;DHT22;68091;52.130;5.570;2023-05-29T13:09:02;20.10;87.90
78550;DHT22;68091;52.130;5.570;2023-05-29T13:11:28;19.80;87.90
78550;DHT22;68091;52.130;5.570;2023-05-29T13:13:56;19.80;89.60
78550;DHT22;68091;52.130;5.570;2023-05-29T13:16:22;20.00;90.10
78550;DHT22;68091;52.130;5.570;2023-05-29T13:18:51;20.10;89.40
78550;DHT22;68091;52.130;5.570;2023-05-29T13:21:17;20.20;87.90
78550;DHT22;68091;52.130;5.570;2023-05-29T13:23:42;20.30;87.50
78550;DHT22;68091;52.130;5.570;2023-05-29T13:26:08;20.30;88.40
78550;DHT22;68091;52.130;5.570;2023-05-29T13:28:34;20.30;87.90
78550;DHT22;68091;52.130;5.570;2023-05-29T13:31:00;20.60;87.80
78550;DHT22;68091;52.130;5.570;2023-05-29T13:33:25;20.60;88.40
78550;DHT22;68091;52.130;5.570;2023-05-29T13:35:54;21.10;86.90
78550;DHT22;68091;52.130;5.570;2023-05-29T13:38:19;20.70;88.00
78550;DHT22;68091;52.130;5.570;2023-05-29T13:40:46;20.90;87.20
78550;DHT22;68091;52.130;5.570;2023-05-29T13:43:11;21.10;84.80
78550;DHT22;68091;52.130;5.570;2023-05-29T13:45:37;21.00;85.40
78550;DHT22;68091;52.130;5.570;2023-05-29T13:48:06;20.80;86.50
78550;DHT22;68091;52.130;5.570;2023-05-29T13:50:31;20.80;84.10
78550;DHT22;68091;52.130;5.570;2023-05-29T13:52:57;20.90;85.60
78550;DHT22;68091;52.130;5.570;2023-05-29T13:55:23;21.10;83.70
78550;DHT22;68091;52.130;5.570;2023-05-29T13:57:48;21.40;83.60
78550;DHT22;68091;52.130;5.570;2023-05-29T14:00:14;21.70;82.40
78550;DHT22;68091;52.130;5.570;2023-05-29T14:02:43;22.30;80.90
78550;DHT22;68091;52.130;5.570;2023-05-29T14:05:09;22.30;78.10
78550;DHT22;68091;52.130;5.570;2023-05-29T14:07:42;22.70;78.10
78550;DHT22;68091;52.130;5.570;2023-05-29T14:10:08;22.80;77.60
78550;DHT22;68091;52.130;5.570;2023-05-29T14:12:34;22.70;77.80
78550;DHT22;68091;52.130;5.570;2023-05-29T14:15:00;23.10;77.00
78550;DHT22;68091;52.130;5.570;2023-05-29T14:17:25;23.30;77.20
78550;DHT22;68091;52.130;5.570;2023-05-29T14:19:51;23.30;74.80
78550;DHT22;68091;52.130;5.570;2023-05-29T14:22:17;23.10;74.60
78550;DHT22;68091;52.130;5.570;2023-05-29T14:24:43;23.20;75.30
78550;DHT22;68091;52.130;5.570;2023-05-29T14:27:09;23.20;73.70
78550;DHT22;68091;52.130;5.570;2023-05-29T14:29:37;23.60;72.50
78550;DHT22;68091;52.130;5.570;2023-05-29T14:32:09;24.00;72.40
78550;DHT22;68091;52.130;5.570;2023-05-29T14:34:35;24.20;72.10
78550;DHT22;68091;52.130;5.570;2023-05-29T14:37:01;24.60;71.20
78550;DHT22;68091;52.130;5.570;2023-05-29T14:39:26;24.80;71.00
78550;DHT22;68091;52.130;5.570;2023-05-29T14:41:52;24.90;68.10
78550;DHT22;68091;52.130;5.570;2023-05-29T14:44:18;25.10;67.60
78550;DHT22;68091;52.130;5.570;2023-05-29T14:46:44;25.10;65.50
78550;DHT22;68091;52.130;5.570;2023-05-29T14:49:09;25.20;66.10
78550;DHT22;68091;52.130;5.570;2023-05-29T14:51:35;25.10;65.80
78550;DHT22;68091;52.130;5.570;2023-05-29T14:54:02;25.20;64.30
78550;DHT22;68091;52.130;5.570;2023-05-29T14:56:27;25.00;64.30
78550;DHT22;68091;52.130;5.570;2023-05-29T14:58:53;24.90;64.20
78550;DHT22;68091;52.130;5.570;2023-05-29T15:01:19;24.70;64.80
78550;DHT22;68091;52.130;5.570;2023-05-29T15:03:45;24.60;63.30
78550;DHT22;68091;52.130;5.570;2023-05-29T15:06:11;24.10;65.30
78550;DHT22;68091;52.130;5.570;2023-05-29T15:08:38;24.10;65.70
78550;DHT22;68091;52.130;5.570;2023-05-29T15:11:05;24.40;64.40
78550;DHT22;68091;52.130;5.570;2023-05-29T15:13:31;24.60;64.30
78550;DHT22;68091;52.130;5.570;2023-05-29T15:16:00;24.90;63.00
78550;DHT22;68091;52.130;5.570;2023-05-29T15:18:30;25.20;62.70
78550;DHT22;68091;52.130;5.570;2023-05-29T15:20:56;25.50;61.50
78550;DHT22;68091;52.130;5.570;2023-05-29T15:23:27;25.70;61.80
78550;DHT22;68091;52.130;5.570;2023-05-29T15:25:53;25.60;60.20
78550;DHT22;68091;52.130;5.570;2023-05-29T15:28:19;25.80;60.40
78550;DHT22;68091;52.130;5.570;2023-05-29T15:30:45;26.10;60.00
78550;DHT22;68091;52.130;5.570;2023-05-29T15:33:11;26.00;60.00
78550;DHT22;68091;52.130;5.570;2023-05-29T15:35:37;26.60;58.90
78550;DHT22;68091;52.130;5.570;2023-05-29T15:38:04;26.80;58.40
78550;DHT22;68091;52.130;5.570;2023-05-29T15:40:30;27.30;57.40
78550;DHT22;68091;52.130;5.570;2023-05-29T15:42:55;26.70;56.20
78550;DHT22;68091;52.130;5.570;2023-05-29T15:45:21;27.40;55.10
78550;DHT22;68091;52.130;5.570;2023-05-29T15:47:48;27.30;53.60
78550;DHT22;68091;52.130;5.570;2023-05-29T15:50:14;26.60;56.00
78550;DHT22;68091;52.130;5.570;2023-05-29T15:52:40;26.70;55.30
78550;DHT22;68091;52.130;5.570;2023-05-29T15:55:06;26.70;54.50
78550;DHT22;68091;52.130;5.570;2023-05-29T15:57:32;26.80;54.00
78550;DHT22;68091;52.130;5.570;2023-05-29T16:00:02;27.00;53.40
78550;DHT22;68091;52.130;5.570;2023-05-29T16:02:28;27.00;53.40